createdAt,value
2019-03-28T00:00:15.330Z,1025.61
2019-03-28T00:01:15.328Z,1025.63
2019-03-28T00:02:15.319Z,1025.63
2019-03-28T00:03:15.313Z,1025.64
2019-03-28T00:07:15.293Z,1025.57
2019-03-28T00:08:15.291Z,1025.57
2019-03-28T00:09:15.277Z,1025.60
2019-03-28T00:10:15.277Z,1025.58
2019-03-28T00:11:15.268Z,1025.61
2019-03-28T00:12:15.267Z,1025.61
2019-03-28T00:13:15.261Z,1025.61
2019-03-28T00:14:15.255Z,1025.66
2019-03-28T00:15:15.453Z,1025.63
2019-03-28T00:16:15.458Z,1025.64
2019-03-28T00:17:15.237Z,1025.67
2019-03-28T00:18:15.236Z,1025.62
2019-03-28T00:19:15.424Z,1025.63
2019-03-28T00:20:16.506Z,1025.59
2019-03-28T00:23:15.201Z,1025.64
2019-03-28T00:24:15.196Z,1025.61
2019-03-28T00:25:15.188Z,1025.60
2019-03-28T00:29:15.175Z,1025.63
2019-03-28T00:31:15.193Z,1025.67
2019-03-28T00:32:15.151Z,1025.67
2019-03-28T00:34:15.140Z,1025.71
2019-03-28T00:35:15.135Z,1025.72
2019-03-28T00:36:15.336Z,1025.69
2019-03-28T00:38:15.121Z,1025.70
2019-03-28T00:39:15.417Z,1025.72
2019-03-28T00:40:15.113Z,1025.72
2019-03-28T00:42:15.095Z,1025.68
2019-03-28T00:43:15.091Z,1025.70
2019-03-28T00:44:15.093Z,1025.65
2019-03-28T00:45:15.284Z,1025.65
2019-03-28T00:46:15.078Z,1025.68
2019-03-28T00:47:15.071Z,1025.65
2019-03-28T00:48:15.064Z,1025.67
2019-03-28T00:49:15.267Z,1025.67
2019-03-28T00:50:15.052Z,1025.64
2019-03-28T00:51:15.058Z,1025.63
2019-03-28T00:52:15.044Z,1025.66
2019-03-28T00:53:48.246Z,1025.67
2019-03-28T00:54:15.028Z,1025.64
2019-03-28T00:55:15.025Z,1025.64
2019-03-28T00:56:15.025Z,1025.60
2019-03-28T00:57:15.226Z,1025.61
2019-03-28T00:59:15.004Z,1025.55
2019-03-28T01:00:15.202Z,1025.57
2019-03-28T01:01:14.995Z,1025.59
2019-03-28T01:02:14.990Z,1025.60
2019-03-28T01:03:15.182Z,1025.62
2019-03-28T01:04:14.979Z,1025.57
2019-03-28T01:05:14.969Z,1025.58
2019-03-28T01:07:14.955Z,1025.57
2019-03-28T01:08:14.954Z,1025.54
2019-03-28T01:09:14.950Z,1025.54
2019-03-28T01:11:14.937Z,1025.50
2019-03-28T01:12:14.933Z,1025.48
2019-03-28T01:13:14.927Z,1025.47
2019-03-28T01:17:14.897Z,1025.50
2019-03-28T01:18:14.900Z,1025.49
2019-03-28T01:21:14.878Z,1025.51
2019-03-28T01:22:15.282Z,1025.51
2019-03-28T01:23:14.868Z,1025.53
2019-03-28T01:26:14.852Z,1025.47
2019-03-28T01:27:14.851Z,1025.46
2019-03-28T01:29:14.833Z,1025.47
2019-03-28T01:30:14.827Z,1025.40
2019-03-28T01:31:14.823Z,1025.45
2019-03-28T01:32:15.015Z,1025.43
2019-03-28T01:33:15.014Z,1025.45
2019-03-28T01:34:14.802Z,1025.43
2019-03-28T01:36:14.793Z,1025.47
2019-03-28T01:39:14.778Z,1025.52
2019-03-28T01:41:14.766Z,1025.54
2019-03-28T01:42:14.765Z,1025.54
2019-03-28T01:43:14.756Z,1025.54
2019-03-28T01:44:14.949Z,1025.51
2019-03-28T01:45:14.742Z,1025.51
2019-03-28T01:46:14.733Z,1025.50
2019-03-28T01:47:14.734Z,1025.47
2019-03-28T01:48:14.723Z,1025.49
2019-03-28T01:49:48.131Z,1025.49
2019-03-28T01:50:15.379Z,1025.48
2019-03-28T01:52:14.707Z,1025.47
2019-03-28T01:53:14.699Z,1025.45
2019-03-28T01:55:14.687Z,1025.47
2019-03-28T01:56:14.885Z,1025.46
2019-03-28T01:57:14.880Z,1025.44
2019-03-28T01:58:14.672Z,1025.44
2019-03-28T01:59:14.868Z,1025.44
2019-03-28T02:01:14.655Z,1025.43
2019-03-28T02:03:14.644Z,1025.50
2019-03-28T02:04:14.844Z,1025.44
2019-03-28T02:05:14.632Z,1025.48
2019-03-28T02:06:14.828Z,1025.52
2019-03-28T02:07:14.621Z,1025.46
2019-03-28T02:08:15.256Z,1025.52
2019-03-28T02:09:15.013Z,1025.50
2019-03-28T02:10:14.805Z,1025.55
2019-03-28T02:11:15.103Z,1025.48
2019-03-28T02:12:14.593Z,1025.49
2019-03-28T02:14:14.574Z,1025.45
2019-03-28T02:15:14.772Z,1025.47
2019-03-28T02:17:14.562Z,1025.47
2019-03-28T02:18:14.557Z,1025.46
2019-03-28T02:19:14.552Z,1025.54
2019-03-28T02:21:14.745Z,1025.50
2019-03-28T02:22:14.536Z,1025.48
2019-03-28T02:23:14.526Z,1025.46
2019-03-28T02:24:14.520Z,1025.49
2019-03-28T02:25:15.741Z,1025.53
2019-03-28T02:26:14.506Z,1025.48
2019-03-28T02:27:23.805Z,1025.50
2019-03-28T02:28:14.504Z,1025.48
2019-03-28T02:31:14.485Z,1025.51
2019-03-28T02:33:14.470Z,1025.51
2019-03-28T02:34:14.463Z,1025.55
2019-03-28T02:35:14.666Z,1025.56
2019-03-28T02:36:15.068Z,1025.56
2019-03-28T02:37:14.454Z,1025.59
2019-03-28T02:38:14.442Z,1025.62
2019-03-28T02:39:14.436Z,1025.62
2019-03-28T02:40:14.435Z,1025.63
2019-03-28T02:41:14.427Z,1025.65
2019-03-28T02:43:14.629Z,1025.62
2019-03-28T02:44:14.415Z,1025.61
2019-03-28T02:45:14.412Z,1025.65
2019-03-28T02:47:14.396Z,1025.63
2019-03-28T02:48:14.389Z,1025.64
2019-03-28T02:49:14.382Z,1025.68
2019-03-28T02:50:14.374Z,1025.68
2019-03-28T02:52:14.364Z,1025.71
2019-03-28T02:53:14.564Z,1025.71
2019-03-28T02:54:14.358Z,1025.66
2019-03-28T02:55:14.574Z,1025.68
2019-03-28T02:59:14.526Z,1025.64
2019-03-28T03:00:14.321Z,1025.63
2019-03-28T03:01:14.517Z,1025.62
2019-03-28T03:02:14.318Z,1025.63
2019-03-28T03:04:14.314Z,1025.68
2019-03-28T03:05:14.289Z,1025.67
2019-03-28T03:06:14.284Z,1025.67
2019-03-28T03:07:14.279Z,1025.65
2019-03-28T03:08:14.275Z,1025.66
2019-03-28T03:10:14.269Z,1025.66
2019-03-28T03:11:14.257Z,1025.64
2019-03-28T03:13:14.446Z,1025.59
2019-03-28T03:15:14.437Z,1025.64
2019-03-28T03:16:14.226Z,1025.72
2019-03-28T03:18:14.213Z,1025.70
2019-03-28T03:19:14.418Z,1025.69
2019-03-28T03:20:14.411Z,1025.71
2019-03-28T03:21:14.202Z,1025.76
2019-03-28T03:22:14.196Z,1025.72
2019-03-28T03:23:14.188Z,1025.77
2019-03-28T03:28:14.362Z,1025.80
2019-03-28T03:30:14.148Z,1025.83
2019-03-28T03:31:20.333Z,1025.81
2019-03-28T03:32:14.140Z,1025.84
2019-03-28T03:33:14.143Z,1025.84
2019-03-28T03:34:14.126Z,1025.91
2019-03-28T03:35:14.127Z,1025.90
2019-03-28T03:36:14.116Z,1025.92
2019-03-28T03:37:14.124Z,1025.92
2019-03-28T03:38:14.098Z,1025.90
2019-03-28T03:39:14.094Z,1025.90
2019-03-28T03:40:14.094Z,1025.92
2019-03-28T03:41:14.284Z,1025.90
2019-03-28T03:43:14.079Z,1025.89
2019-03-28T03:44:14.064Z,1025.92
2019-03-28T03:46:14.052Z,1025.91
2019-03-28T03:47:14.052Z,1025.90
2019-03-28T03:48:14.045Z,1025.91
2019-03-28T03:52:14.025Z,1025.97
2019-03-28T03:54:14.011Z,1025.90
2019-03-28T03:55:14.006Z,1025.92
2019-03-28T03:58:16.830Z,1025.92
2019-03-28T03:59:13.986Z,1025.98
2019-03-28T04:00:15.392Z,1025.97
2019-03-28T04:01:13.970Z,1025.96
2019-03-28T04:02:13.966Z,1025.96
2019-03-28T04:03:13.960Z,1026.00
2019-03-28T04:04:13.957Z,1025.99
2019-03-28T04:05:13.946Z,1026.02
2019-03-28T04:06:13.942Z,1025.99
2019-03-28T04:07:13.935Z,1026.00
2019-03-28T04:08:13.928Z,1025.97
2019-03-28T04:09:13.926Z,1026.00
2019-03-28T04:10:13.921Z,1025.95
2019-03-28T04:11:13.938Z,1026.00
2019-03-28T04:12:13.904Z,1026.01
2019-03-28T04:13:13.903Z,1025.98
2019-03-28T04:14:13.895Z,1025.98
2019-03-28T04:15:13.908Z,1025.97
2019-03-28T04:16:13.892Z,1026.02
2019-03-28T04:17:13.876Z,1026.00
2019-03-28T04:18:14.088Z,1026.02
2019-03-28T04:19:13.876Z,1026.03
2019-03-28T04:21:13.861Z,1026.08
2019-03-28T04:22:13.852Z,1026.08
2019-03-28T04:24:13.837Z,1026.07
2019-03-28T04:25:13.901Z,1026.05
2019-03-28T04:27:14.020Z,1026.08
2019-03-28T04:28:24.809Z,1026.10
2019-03-28T04:29:14.012Z,1026.12
2019-03-28T04:30:14.409Z,1026.10
2019-03-28T04:32:13.796Z,1026.10
2019-03-28T04:33:13.810Z,1026.08
2019-03-28T04:34:13.783Z,1026.12
2019-03-28T04:35:13.775Z,1026.12
2019-03-28T04:36:14.491Z,1026.10
2019-03-28T04:37:13.759Z,1026.11
2019-03-28T04:38:14.158Z,1026.11
2019-03-28T04:39:13.752Z,1026.08
2019-03-28T04:40:13.952Z,1026.08
2019-03-28T04:41:13.745Z,1026.10
2019-03-28T04:42:13.771Z,1026.07
2019-03-28T04:43:13.731Z,1026.09
2019-03-28T04:44:13.724Z,1026.07
2019-03-28T04:45:13.720Z,1026.08
2019-03-28T04:47:13.707Z,1026.13
2019-03-28T04:48:13.701Z,1026.11
2019-03-28T04:49:15.679Z,1026.15
2019-03-28T04:50:13.686Z,1026.11
2019-03-28T04:51:13.884Z,1026.07
2019-03-28T04:52:13.680Z,1026.10
2019-03-28T04:53:13.672Z,1026.11
2019-03-28T04:55:13.658Z,1026.08
2019-03-28T04:56:13.656Z,1026.08
2019-03-28T04:59:13.636Z,1026.14
2019-03-28T05:00:13.630Z,1026.12
2019-03-28T05:02:00.989Z,1026.13
2019-03-28T05:04:15.305Z,1026.15
2019-03-28T05:05:13.596Z,1026.12
2019-03-28T05:06:13.595Z,1026.12
2019-03-28T05:07:13.585Z,1026.12
2019-03-28T05:08:13.586Z,1026.17
2019-03-28T05:09:13.574Z,1026.17
2019-03-28T05:10:13.572Z,1026.19
2019-03-28T05:11:13.565Z,1026.21
2019-03-28T05:13:13.550Z,1026.19
2019-03-28T05:14:13.548Z,1026.19
2019-03-28T05:15:13.545Z,1026.19
2019-03-28T05:16:13.535Z,1026.21
2019-03-28T05:17:14.397Z,1026.21
2019-03-28T05:18:13.726Z,1026.22
2019-03-28T05:19:13.515Z,1026.19
2019-03-28T05:20:13.756Z,1026.20
2019-03-28T05:21:13.709Z,1026.19
2019-03-28T05:22:13.496Z,1026.19
2019-03-28T05:23:14.310Z,1026.17
2019-03-28T05:24:13.686Z,1026.19
2019-03-28T05:25:13.485Z,1026.17
2019-03-28T05:26:13.677Z,1026.22
2019-03-28T05:27:16.390Z,1026.20
2019-03-28T05:28:13.470Z,1026.22
2019-03-28T05:29:13.454Z,1026.24
2019-03-28T05:31:13.445Z,1026.25
2019-03-28T05:32:13.448Z,1026.23
2019-03-28T05:34:13.425Z,1026.25
2019-03-28T05:37:13.411Z,1026.26
2019-03-28T05:39:13.401Z,1026.27
2019-03-28T05:40:13.389Z,1026.27
2019-03-28T05:42:13.579Z,1026.25
2019-03-28T05:44:14.589Z,1026.24
2019-03-28T05:45:13.568Z,1026.27
2019-03-28T05:46:13.361Z,1026.29
2019-03-28T05:47:13.349Z,1026.27
2019-03-28T05:49:13.337Z,1026.28
2019-03-28T05:50:13.335Z,1026.25
2019-03-28T05:51:13.331Z,1026.26
2019-03-28T05:52:13.322Z,1026.29
2019-03-28T05:53:13.316Z,1026.29
2019-03-28T05:55:13.510Z,1026.29
2019-03-28T05:56:13.298Z,1026.25
2019-03-28T05:58:13.281Z,1026.27
2019-03-28T05:59:14.492Z,1026.24
2019-03-28T06:00:13.272Z,1026.28
2019-03-28T06:02:13.258Z,1026.26
2019-03-28T06:03:13.251Z,1026.27
2019-03-28T06:04:13.251Z,1026.29
2019-03-28T06:07:13.432Z,1026.23
2019-03-28T06:09:13.221Z,1026.20
2019-03-28T06:10:16.224Z,1026.27
2019-03-28T06:11:13.410Z,1026.26
2019-03-28T06:12:13.200Z,1026.30
2019-03-28T06:13:13.192Z,1026.26
2019-03-28T06:15:13.182Z,1026.32
2019-03-28T06:16:13.179Z,1026.32
2019-03-28T06:17:13.175Z,1026.31
2019-03-28T06:18:13.166Z,1026.31
2019-03-28T06:19:13.152Z,1026.34
2019-03-28T06:20:13.153Z,1026.34
2019-03-28T06:21:13.146Z,1026.36
2019-03-28T06:22:13.516Z,1026.37
2019-03-28T06:23:13.400Z,1026.40
2019-03-28T06:24:46.341Z,1026.37
2019-03-28T06:25:13.124Z,1026.40
2019-03-28T06:26:13.115Z,1026.37
2019-03-28T06:27:13.313Z,1026.37
2019-03-28T06:28:13.108Z,1026.37
2019-03-28T06:29:23.293Z,1026.38
2019-03-28T06:30:13.093Z,1026.41
2019-03-28T06:31:13.084Z,1026.33
2019-03-28T06:32:13.282Z,1026.35
2019-03-28T06:34:46.483Z,1026.40
2019-03-28T06:35:13.270Z,1026.42
2019-03-28T06:36:13.063Z,1026.42
2019-03-28T06:38:13.049Z,1026.45
2019-03-28T06:40:13.238Z,1026.51
2019-03-28T06:41:13.032Z,1026.49
2019-03-28T06:43:13.020Z,1026.53
2019-03-28T06:44:13.019Z,1026.50
2019-03-28T06:46:13.000Z,1026.59
2019-03-28T06:47:12.996Z,1026.64
2019-03-28T06:48:12.994Z,1026.64
2019-03-28T06:49:12.985Z,1026.65
2019-03-28T06:50:12.981Z,1026.72
2019-03-28T06:51:12.972Z,1026.70
2019-03-28T06:52:12.977Z,1026.71
2019-03-28T06:54:13.168Z,1026.74
2019-03-28T06:55:13.157Z,1026.72
2019-03-28T06:57:12.949Z,1026.72
2019-03-28T06:59:12.934Z,1026.74
2019-03-28T07:01:12.929Z,1026.77
2019-03-28T07:02:12.917Z,1026.79
2019-03-28T07:03:13.116Z,1026.78
2019-03-28T07:04:12.916Z,1026.77
2019-03-28T07:05:12.902Z,1026.77
2019-03-28T07:06:12.897Z,1026.76
2019-03-28T07:07:12.899Z,1026.76
2019-03-28T07:09:12.895Z,1026.78
2019-03-28T07:10:12.883Z,1026.81
2019-03-28T07:11:12.876Z,1026.86
2019-03-28T07:12:12.869Z,1026.88
2019-03-28T07:13:12.884Z,1026.87
2019-03-28T07:16:12.854Z,1026.92
2019-03-28T07:17:12.848Z,1026.92
2019-03-28T07:18:12.841Z,1026.93
2019-03-28T07:19:13.042Z,1026.95
2019-03-28T07:20:12.829Z,1026.95
2019-03-28T07:21:12.831Z,1026.96
2019-03-28T07:22:13.024Z,1026.96
2019-03-28T07:23:12.814Z,1027.02
2019-03-28T07:25:12.809Z,1027.03
2019-03-28T07:27:12.800Z,1027.00
2019-03-28T07:28:12.797Z,1027.03
2019-03-28T07:29:12.788Z,1027.00
2019-03-28T07:30:12.785Z,1027.02
2019-03-28T07:31:12.909Z,1026.98
2019-03-28T07:32:12.778Z,1027.01
2019-03-28T07:33:12.768Z,1027.02
2019-03-28T07:34:13.610Z,1027.03
2019-03-28T07:35:12.967Z,1027.04
2019-03-28T07:37:12.762Z,1027.02
2019-03-28T07:38:12.953Z,1027.00
2019-03-28T07:39:13.420Z,1026.99
2019-03-28T07:40:12.743Z,1027.02
2019-03-28T07:41:12.735Z,1027.01
2019-03-28T07:42:12.732Z,1027.01
2019-03-28T07:43:12.923Z,1027.06
2019-03-28T07:44:12.724Z,1027.06
2019-03-28T07:45:12.719Z,1027.09
2019-03-28T07:46:12.709Z,1027.09
2019-03-28T07:47:12.708Z,1027.11
2019-03-28T07:48:12.703Z,1027.10
2019-03-28T07:49:12.905Z,1027.10
2019-03-28T07:50:12.699Z,1027.09
2019-03-28T07:51:12.891Z,1027.08
2019-03-28T07:52:12.685Z,1027.06
2019-03-28T07:53:12.886Z,1027.05
2019-03-28T07:54:13.406Z,1027.00
2019-03-28T07:55:12.672Z,1026.95
2019-03-28T07:56:12.672Z,1026.95
2019-03-28T07:58:13.886Z,1026.96
2019-03-28T07:59:12.654Z,1026.94
2019-03-28T08:00:12.656Z,1026.96
2019-03-28T08:01:12.644Z,1026.94
2019-03-28T08:02:12.649Z,1026.94
2019-03-28T08:03:12.637Z,1026.92
2019-03-28T08:04:12.846Z,1026.87
2019-03-28T08:05:12.635Z,1026.90
2019-03-28T08:06:13.022Z,1026.87
2019-03-28T08:07:12.626Z,1026.84
2019-03-28T08:08:12.618Z,1026.85
2019-03-28T08:10:12.811Z,1026.84
2019-03-28T08:11:12.634Z,1026.87
2019-03-28T08:12:22.523Z,1026.91
2019-03-28T08:14:12.599Z,1026.90
2019-03-28T08:15:12.807Z,1026.94
2019-03-28T08:16:12.995Z,1026.92
2019-03-28T08:18:12.583Z,1026.96
2019-03-28T08:19:12.586Z,1026.95
2019-03-28T08:20:12.580Z,1026.94
2019-03-28T08:21:12.574Z,1026.98
2019-03-28T08:22:12.572Z,1026.97
2019-03-28T08:25:13.776Z,1027.04
2019-03-28T08:26:12.560Z,1027.05
2019-03-28T08:27:12.553Z,1027.05
2019-03-28T08:28:12.554Z,1027.07
2019-03-28T08:29:12.549Z,1027.10
2019-03-28T08:31:12.540Z,1027.12
2019-03-28T08:32:13.690Z,1027.08
2019-03-28T08:33:12.534Z,1027.04
2019-03-28T08:34:12.932Z,1027.00
2019-03-28T08:35:12.526Z,1027.01
2019-03-28T08:36:12.729Z,1027.02
2019-03-28T08:37:12.726Z,1027.01
2019-03-28T08:39:12.529Z,1026.98
2019-03-28T08:40:12.514Z,1027.02
2019-03-28T08:41:12.510Z,1027.00
2019-03-28T08:42:12.712Z,1027.00
2019-03-28T08:43:12.715Z,1027.04
2019-03-28T08:45:12.502Z,1027.15
2019-03-28T08:46:12.699Z,1027.20
2019-03-28T08:47:12.499Z,1027.22
2019-03-28T08:48:12.699Z,1027.23
2019-03-28T08:49:12.489Z,1027.23
2019-03-28T08:51:12.486Z,1027.30
2019-03-28T08:52:12.489Z,1027.29
2019-03-28T08:53:12.687Z,1027.20
2019-03-28T08:55:12.683Z,1027.27
2019-03-28T08:56:12.475Z,1027.25
2019-03-28T08:57:13.734Z,1027.22
2019-03-28T08:58:12.473Z,1027.26
2019-03-28T08:59:12.470Z,1027.25
2019-03-28T09:00:12.473Z,1027.24
2019-03-28T09:01:12.470Z,1027.25
2019-03-28T09:02:12.469Z,1027.24
2019-03-28T09:03:12.469Z,1027.28
2019-03-28T09:04:12.462Z,1027.33
2019-03-28T09:05:12.866Z,1027.37
2019-03-28T09:07:12.456Z,1027.40
2019-03-28T09:08:12.456Z,1027.38
2019-03-28T09:09:12.458Z,1027.39
2019-03-28T09:10:12.457Z,1027.36
2019-03-28T09:11:12.453Z,1027.34
2019-03-28T09:12:12.653Z,1027.35
2019-03-28T09:14:13.660Z,1027.38
2019-03-28T09:18:12.444Z,1027.39
2019-03-28T09:21:12.445Z,1027.45
2019-03-28T09:22:12.440Z,1027.46
2019-03-28T09:25:12.608Z,1027.45
2019-03-28T09:26:13.663Z,1027.48
2019-03-28T09:27:12.835Z,1027.47
2019-03-28T09:28:12.429Z,1027.48
2019-03-28T09:29:12.637Z,1027.50
2019-03-28T09:31:19.804Z,1027.46
2019-03-28T09:32:12.436Z,1027.43
2019-03-28T09:34:12.631Z,1027.46
2019-03-28T09:35:12.430Z,1027.45
2019-03-28T09:36:12.424Z,1027.40
2019-03-28T09:39:12.622Z,1027.43
2019-03-28T09:40:12.420Z,1027.41
2019-03-28T09:44:12.422Z,1027.44
2019-03-28T09:45:13.628Z,1027.45
2019-03-28T09:47:12.422Z,1027.50
2019-03-28T09:48:12.420Z,1027.48
2019-03-28T09:49:12.422Z,1027.50
2019-03-28T09:51:12.416Z,1027.51
2019-03-28T09:52:12.618Z,1027.54
2019-03-28T09:53:12.414Z,1027.54
2019-03-28T09:54:12.415Z,1027.55
2019-03-28T09:55:12.617Z,1027.54
2019-03-28T09:56:12.416Z,1027.53
2019-03-28T09:57:12.419Z,1027.51
2019-03-28T09:58:12.691Z,1027.54
2019-03-28T09:59:12.417Z,1027.53
2019-03-28T10:00:12.420Z,1027.48
2019-03-28T10:01:12.414Z,1027.48
2019-03-28T10:02:12.411Z,1027.46
2019-03-28T10:03:12.414Z,1027.51
2019-03-28T10:07:12.413Z,1027.49
2019-03-28T10:10:12.416Z,1027.47
2019-03-28T10:11:12.417Z,1027.48
2019-03-28T10:12:12.419Z,1027.47
2019-03-28T10:13:12.415Z,1027.46
2019-03-28T10:14:12.419Z,1027.49
2019-03-28T10:16:12.423Z,1027.52
2019-03-28T10:17:12.623Z,1027.50
2019-03-28T10:19:12.826Z,1027.51
2019-03-28T10:20:12.420Z,1027.51
2019-03-28T10:21:12.420Z,1027.51
2019-03-28T10:22:12.422Z,1027.53
2019-03-28T10:23:12.759Z,1027.53
2019-03-28T10:27:12.419Z,1027.54
2019-03-28T10:28:12.422Z,1027.52
2019-03-28T10:29:12.628Z,1027.52
2019-03-28T10:30:12.628Z,1027.53
2019-03-28T10:31:16.642Z,1027.55
2019-03-28T10:34:12.420Z,1027.63
2019-03-28T10:35:12.421Z,1027.60
2019-03-28T10:37:12.424Z,1027.56
2019-03-28T10:38:12.832Z,1027.58
2019-03-28T10:39:12.429Z,1027.59
2019-03-28T10:41:12.420Z,1027.60
2019-03-28T10:42:12.421Z,1027.60
2019-03-28T10:43:12.430Z,1027.58
2019-03-28T10:46:12.627Z,1027.51
2019-03-28T10:47:12.425Z,1027.50
2019-03-28T10:49:12.429Z,1027.49
2019-03-28T10:50:12.429Z,1027.48
2019-03-28T10:53:12.428Z,1027.49
2019-03-28T10:54:20.089Z,1027.52
2019-03-28T10:55:12.434Z,1027.49
2019-03-28T10:56:21.558Z,1027.48
2019-03-28T10:57:45.838Z,1027.51
2019-03-28T10:58:18.820Z,1027.53
2019-03-28T10:59:22.714Z,1027.52
2019-03-28T11:00:23.568Z,1027.49
2019-03-28T11:01:12.429Z,1027.50
2019-03-28T11:02:12.664Z,1027.49
2019-03-28T11:03:12.641Z,1027.49
2019-03-28T11:04:12.431Z,1027.50
2019-03-28T11:05:12.426Z,1027.51
2019-03-28T11:06:12.638Z,1027.52
2019-03-28T11:07:12.432Z,1027.53
2019-03-28T11:08:12.432Z,1027.54
2019-03-28T11:09:13.669Z,1027.50
2019-03-28T11:10:12.438Z,1027.50
2019-03-28T11:11:12.430Z,1027.54
2019-03-28T11:16:14.990Z,1027.54
2019-03-28T11:17:12.439Z,1027.48
2019-03-28T11:19:15.555Z,1027.47
2019-03-28T11:20:12.649Z,1027.46
2019-03-28T11:21:12.441Z,1027.50
2019-03-28T11:22:12.653Z,1027.45
2019-03-28T11:25:12.457Z,1027.45
2019-03-28T11:26:12.457Z,1027.44
2019-03-28T11:27:12.459Z,1027.48
2019-03-28T11:28:12.465Z,1027.46
2019-03-28T11:29:12.466Z,1027.49
2019-03-28T11:30:12.464Z,1027.48
2019-03-28T11:32:12.465Z,1027.48
2019-03-28T11:33:12.468Z,1027.53
2019-03-28T11:34:12.677Z,1027.47
2019-03-28T11:36:12.476Z,1027.51
2019-03-28T11:37:25.238Z,1027.50
2019-03-28T11:39:12.692Z,1027.51
2019-03-28T11:40:12.982Z,1027.53
2019-03-28T11:41:12.496Z,1027.48
2019-03-28T11:42:12.704Z,1027.51
2019-03-28T11:43:12.707Z,1027.50
2019-03-28T11:44:12.506Z,1027.50
2019-03-28T11:45:12.506Z,1027.56
2019-03-28T11:46:12.515Z,1027.49
2019-03-28T11:48:12.517Z,1027.52
2019-03-28T11:49:12.520Z,1027.55
2019-03-28T11:50:12.525Z,1027.51
2019-03-28T11:51:12.726Z,1027.56
2019-03-28T11:52:12.727Z,1027.52
2019-03-28T11:53:12.531Z,1027.52
2019-03-28T11:54:12.532Z,1027.48
2019-03-28T11:55:12.540Z,1027.45
2019-03-28T11:57:15.655Z,1027.50
2019-03-28T11:59:12.543Z,1027.52
2019-03-28T12:01:12.549Z,1027.48
2019-03-28T12:02:19.768Z,1027.44
2019-03-28T12:03:12.559Z,1027.46
2019-03-28T12:04:12.760Z,1027.45
2019-03-28T12:05:12.565Z,1027.45
2019-03-28T12:06:12.762Z,1027.44
2019-03-28T12:07:12.564Z,1027.40
2019-03-28T12:08:12.564Z,1027.41
2019-03-28T12:11:12.780Z,1027.41
2019-03-28T12:12:12.575Z,1027.38
2019-03-28T12:13:12.568Z,1027.38
2019-03-28T12:14:12.571Z,1027.37
2019-03-28T12:15:12.580Z,1027.36
2019-03-28T12:16:12.578Z,1027.36
2019-03-28T12:17:12.574Z,1027.31
2019-03-28T12:18:12.581Z,1027.34
2019-03-28T12:19:12.582Z,1027.35
2019-03-28T12:20:12.581Z,1027.29
2019-03-28T12:21:12.783Z,1027.35
2019-03-28T12:22:12.583Z,1027.32
2019-03-28T12:23:12.576Z,1027.31
2019-03-28T12:24:12.577Z,1027.30
2019-03-28T12:25:12.584Z,1027.33
2019-03-28T12:28:12.815Z,1027.28
2019-03-28T12:29:12.579Z,1027.28
2019-03-28T12:30:15.718Z,1027.24
2019-03-28T12:32:14.319Z,1027.22
2019-03-28T12:33:12.574Z,1027.22
2019-03-28T12:36:12.776Z,1027.22
2019-03-28T12:37:12.574Z,1027.23
2019-03-28T12:38:12.578Z,1027.24
2019-03-28T12:39:15.477Z,1027.24
2019-03-28T12:40:12.580Z,1027.24
2019-03-28T12:43:12.568Z,1027.24
2019-03-28T12:45:12.564Z,1027.23
2019-03-28T12:46:12.569Z,1027.20
2019-03-28T12:47:12.569Z,1027.20
2019-03-28T12:48:12.565Z,1027.23
2019-03-28T12:49:12.565Z,1027.22
2019-03-28T12:50:12.576Z,1027.20
2019-03-28T12:51:12.562Z,1027.17
2019-03-28T12:52:12.760Z,1027.18
2019-03-28T12:53:12.569Z,1027.19
2019-03-28T12:55:12.560Z,1027.21
2019-03-28T12:56:12.635Z,1027.21
2019-03-28T12:57:14.437Z,1027.19
2019-03-28T12:58:12.561Z,1027.22
2019-03-28T12:59:12.553Z,1027.17
2019-03-28T13:01:12.753Z,1027.21
2019-03-28T13:02:12.757Z,1027.13
2019-03-28T13:03:12.759Z,1027.14
2019-03-28T13:04:12.551Z,1027.15
2019-03-28T13:06:12.550Z,1027.16
2019-03-28T13:07:12.556Z,1027.16
2019-03-28T13:08:12.556Z,1027.16
2019-03-28T13:10:12.560Z,1027.19
2019-03-28T13:11:12.564Z,1027.15
2019-03-28T13:13:12.978Z,1027.15
2019-03-28T13:14:12.784Z,1027.15
2019-03-28T13:15:13.034Z,1027.19
2019-03-28T13:16:12.596Z,1027.12
2019-03-28T13:18:12.606Z,1027.19
2019-03-28T13:19:12.813Z,1027.16
2019-03-28T13:22:13.031Z,1027.11
2019-03-28T13:23:12.633Z,1027.15
2019-03-28T13:24:13.048Z,1027.12
2019-03-28T13:25:12.852Z,1027.08
2019-03-28T13:28:12.657Z,1027.16
2019-03-28T13:29:12.776Z,1027.13
2019-03-28T13:30:13.887Z,1027.11
2019-03-28T13:32:12.679Z,1027.05
2019-03-28T13:33:12.674Z,1027.03
2019-03-28T13:34:12.681Z,1027.01
2019-03-28T13:35:12.679Z,1027.02
2019-03-28T13:38:12.888Z,1026.96
2019-03-28T13:39:12.887Z,1026.92
2019-03-28T13:40:12.888Z,1026.96
2019-03-28T13:41:12.686Z,1026.95
2019-03-28T13:44:12.692Z,1026.97
2019-03-28T13:46:12.889Z,1026.91
2019-03-28T13:47:12.691Z,1026.94
2019-03-28T13:50:12.897Z,1026.93
2019-03-28T13:51:12.689Z,1026.94
2019-03-28T13:52:12.691Z,1026.91
2019-03-28T13:53:12.688Z,1026.92
2019-03-28T13:54:12.692Z,1026.88
2019-03-28T13:55:12.893Z,1026.94
2019-03-28T13:56:13.092Z,1026.90
2019-03-28T13:57:12.691Z,1026.92
2019-03-28T13:58:13.800Z,1026.92
2019-03-28T14:01:12.894Z,1026.90
2019-03-28T14:03:12.684Z,1026.94
2019-03-28T14:04:12.886Z,1026.92
2019-03-28T14:05:13.122Z,1026.90
2019-03-28T14:06:12.691Z,1026.87
2019-03-28T14:07:12.689Z,1026.86
2019-03-28T14:08:12.684Z,1026.84
2019-03-28T14:10:12.682Z,1026.81
2019-03-28T14:11:13.916Z,1026.79
2019-03-28T14:12:12.679Z,1026.81
2019-03-28T14:13:12.677Z,1026.79
2019-03-28T14:15:12.680Z,1026.81
2019-03-28T14:16:12.680Z,1026.85
2019-03-28T14:17:12.679Z,1026.86
2019-03-28T14:18:12.677Z,1026.83
2019-03-28T14:19:12.675Z,1026.82
2019-03-28T14:20:12.878Z,1026.81
2019-03-28T14:21:12.680Z,1026.81
2019-03-28T14:23:12.871Z,1026.82
2019-03-28T14:26:12.674Z,1026.75
2019-03-28T14:27:12.872Z,1026.76
2019-03-28T14:29:12.672Z,1026.73
2019-03-28T14:30:12.662Z,1026.72
2019-03-28T14:31:12.867Z,1026.70
2019-03-28T14:33:15.751Z,1026.65
2019-03-28T14:34:12.858Z,1026.66
2019-03-28T14:35:12.857Z,1026.67
2019-03-28T14:36:12.658Z,1026.65
2019-03-28T14:37:13.059Z,1026.63
2019-03-28T14:38:12.656Z,1026.66
2019-03-28T14:39:12.648Z,1026.65
2019-03-28T14:40:12.658Z,1026.62
2019-03-28T14:41:12.649Z,1026.68
2019-03-28T14:42:12.644Z,1026.64
2019-03-28T14:43:12.845Z,1026.68
2019-03-28T14:46:12.641Z,1026.69
2019-03-28T14:47:12.637Z,1026.68
2019-03-28T14:48:12.641Z,1026.64
2019-03-28T14:49:13.063Z,1026.66
2019-03-28T14:50:13.080Z,1026.65
2019-03-28T14:51:16.063Z,1026.63
2019-03-28T14:53:12.833Z,1026.60
2019-03-28T14:54:12.622Z,1026.57
2019-03-28T14:56:12.623Z,1026.55
2019-03-28T14:57:12.621Z,1026.57
2019-03-28T14:58:12.822Z,1026.58
2019-03-28T14:59:12.617Z,1026.53
2019-03-28T15:01:12.616Z,1026.52
2019-03-28T15:03:24.990Z,1026.50
2019-03-28T15:05:12.810Z,1026.52
2019-03-28T15:06:12.599Z,1026.54
2019-03-28T15:07:12.600Z,1026.57
2019-03-28T15:09:12.595Z,1026.53
2019-03-28T15:10:12.795Z,1026.54
2019-03-28T15:11:12.589Z,1026.50
2019-03-28T15:12:12.789Z,1026.47
2019-03-28T15:13:12.785Z,1026.50
2019-03-28T15:14:12.581Z,1026.46
2019-03-28T15:15:12.789Z,1026.48
2019-03-28T15:17:12.582Z,1026.48
2019-03-28T15:18:12.786Z,1026.44
2019-03-28T15:19:12.570Z,1026.42
2019-03-28T15:20:12.772Z,1026.40
2019-03-28T15:22:12.566Z,1026.41
2019-03-28T15:23:12.565Z,1026.44
2019-03-28T15:24:12.968Z,1026.48
2019-03-28T15:28:12.548Z,1026.46
2019-03-28T15:30:12.546Z,1026.45
2019-03-28T15:31:12.540Z,1026.44
2019-03-28T15:32:12.543Z,1026.42
2019-03-28T15:33:13.755Z,1026.44
2019-03-28T15:34:12.532Z,1026.46
2019-03-28T15:36:12.744Z,1026.47
2019-03-28T15:37:12.531Z,1026.44
2019-03-28T15:38:13.656Z,1026.44
2019-03-28T15:39:12.519Z,1026.45
2019-03-28T15:40:12.520Z,1026.46
2019-03-28T15:41:12.718Z,1026.45
2019-03-28T15:42:12.509Z,1026.43